createdAt,value
2022-08-19T00:02:00.658Z,38.15
2022-08-19T00:05:05.331Z,37.38
2022-08-19T00:08:08.717Z,37.67
2022-08-19T00:11:12.379Z,42.05
2022-08-19T00:14:24.076Z,37.30
2022-08-19T00:17:27.376Z,40.85
2022-08-19T00:20:30.711Z,37.95
2022-08-19T00:23:35.783Z,37.55
2022-08-19T00:26:40.079Z,37.17
2022-08-19T00:29:45.049Z,38.92
2022-08-19T00:32:49.621Z,41.85
2022-08-19T00:35:55.953Z,38.85
2022-08-19T00:38:59.538Z,38.63
2022-08-19T00:42:02.989Z,36.92
2022-08-19T00:45:13.685Z,38.60
2022-08-19T00:48:18.099Z,38.13
2022-08-19T00:51:22.591Z,33.60
2022-08-19T00:54:28.817Z,34.78
2022-08-19T00:57:38.818Z,34.78
2022-08-19T01:00:48.365Z,41.83
2022-08-19T01:09:23.501Z,32.30
2022-08-19T01:55:54.171Z,43.97
2022-08-19T01:59:00.259Z,36.33
2022-08-19T02:02:03.741Z,36.83
2022-08-19T02:05:11.316Z,35.90
2022-08-19T02:08:15.077Z,34.60
2022-08-19T02:11:25.149Z,32.78
2022-08-19T02:14:28.462Z,43.63
2022-08-19T02:17:32.517Z,42.55
2022-08-19T02:20:36.632Z,34.83
2022-08-19T02:23:39.872Z,37.75
2022-08-19T02:26:44.452Z,41.88
2022-08-19T02:29:49.031Z,38.55
2022-08-19T02:32:52.349Z,36.30
2022-08-19T02:35:55.613Z,41.47
2022-08-19T02:38:59.167Z,36.10
2022-08-19T02:42:03.884Z,36.67
2022-08-19T02:45:08.534Z,37.85
2022-08-19T02:48:21.213Z,38.53
2022-08-19T02:51:27.028Z,38.13
2022-08-19T02:54:30.313Z,39.17
2022-08-19T02:57:35.278Z,44.53
2022-08-19T03:00:43.333Z,43.10
2022-08-19T03:03:47.423Z,44.55
2022-08-19T03:06:51.020Z,46.20
2022-08-19T03:09:54.250Z,41.78
2022-08-19T03:12:58.840Z,38.03
2022-08-19T03:16:08.169Z,41.42
2022-08-19T03:19:11.410Z,43.42
2022-08-19T03:22:15.064Z,40.30
2022-08-19T03:25:18.498Z,39.65
2022-08-19T03:28:23.705Z,41.25
2022-08-19T03:31:41.771Z,36.95
2022-08-19T03:34:49.107Z,36.53
2022-08-19T03:37:53.879Z,39.80
2022-08-19T03:40:57.175Z,38.28
2022-08-19T03:44:02.100Z,40.10
2022-08-19T03:47:06.150Z,45.95
2022-08-19T03:50:10.243Z,44.83
2022-08-19T03:53:13.519Z,50.60
2022-08-19T03:56:17.169Z,48.47
2022-08-19T03:59:26.587Z,48.10
2022-08-19T04:02:29.927Z,45.47
2022-08-19T04:05:33.209Z,50.08
2022-08-19T04:08:36.472Z,47.22
2022-08-19T04:11:44.571Z,45.33
2022-08-19T04:14:49.823Z,41.15
2022-08-19T04:17:53.100Z,41.38
2022-08-19T04:20:56.444Z,39.58
2022-08-19T04:24:00.236Z,39.83
2022-08-19T04:27:04.261Z,39.53
2022-08-19T04:30:10.270Z,35.90
2022-08-19T04:33:14.642Z,37.72
2022-08-19T04:36:21.455Z,35.35
2022-08-19T04:39:48.245Z,37.15
2022-08-19T04:42:50.624Z,39.65
2022-08-19T04:46:00.872Z,39.78
2022-08-19T04:49:13.280Z,41.05
2022-08-19T04:52:17.130Z,42.83
2022-08-19T04:55:20.545Z,42.05
2022-08-19T04:58:24.306Z,57.78
2022-08-19T05:01:30.720Z,80.07
2022-08-19T05:04:34.568Z,50.55
2022-08-19T05:07:38.056Z,37.45
2022-08-19T05:10:42.535Z,37.72
2022-08-19T05:13:46.955Z,37.85
2022-08-19T05:17:02.434Z,39.00
2022-08-19T05:20:32.288Z,34.70
2022-08-19T05:23:35.623Z,36.17
2022-08-19T05:26:39.785Z,38.85
2022-08-19T05:29:43.244Z,31.52
2022-08-19T05:32:47.975Z,29.40
2022-08-19T05:35:51.875Z,28.60
2022-08-19T05:38:55.437Z,24.90
2022-08-19T05:42:02.116Z,30.02
2022-08-19T05:45:06.030Z,30.25
2022-08-19T05:48:12.034Z,29.27
2022-08-19T05:51:15.386Z,25.17
2022-08-19T05:54:22.163Z,26.73
2022-08-19T05:57:26.419Z,25.40
2022-08-19T06:00:32.301Z,24.60
2022-08-19T06:03:38.327Z,25.27
2022-08-19T06:06:42.489Z,23.63
2022-08-19T06:09:59.747Z,28.95
2022-08-19T06:13:03.998Z,22.67
2022-08-19T06:16:07.458Z,18.70
2022-08-19T06:19:15.525Z,24.63
2022-08-19T06:22:18.781Z,19.77
2022-08-19T06:25:22.243Z,21.90
2022-08-19T06:28:25.746Z,22.23
2022-08-19T06:31:32.259Z,22.00
2022-08-19T06:34:37.368Z,21.55
2022-08-19T06:37:43.711Z,25.35
2022-08-19T06:40:47.108Z,25.25
2022-08-19T06:43:50.921Z,23.27
2022-08-19T06:46:57.816Z,22.27
2022-08-19T06:50:04.017Z,29.48
2022-08-19T06:53:09.053Z,18.15
2022-08-19T06:56:13.853Z,22.98
2022-08-19T06:59:19.053Z,20.63
2022-08-19T07:02:27.139Z,18.48
2022-08-19T07:05:31.911Z,21.92
2022-08-19T07:11:47.364Z,22.60
2022-08-19T07:14:51.255Z,17.15
2022-08-19T07:17:54.523Z,20.40
2022-08-19T07:21:06.771Z,19.00
2022-08-19T07:24:13.415Z,20.48
2022-08-19T07:27:18.003Z,17.30
2022-08-19T07:30:27.981Z,23.13
2022-08-19T07:33:33.613Z,18.15
2022-08-19T07:36:41.752Z,22.95
2022-08-19T07:39:45.093Z,16.80
2022-08-19T07:42:48.493Z,18.35
2022-08-19T07:45:51.912Z,20.55
2022-08-19T07:48:55.862Z,18.90
2022-08-19T07:52:04.200Z,20.00
2022-08-19T07:55:40.592Z,17.52
2022-08-19T07:58:49.828Z,14.98
2022-08-19T08:01:54.979Z,17.63
2022-08-19T08:05:17.817Z,14.63
2022-08-19T08:12:33.194Z,18.15
2022-08-19T08:15:42.554Z,20.83
2022-08-19T08:19:01.866Z,12.88
2022-08-19T08:22:09.926Z,16.10
2022-08-19T08:25:20.740Z,17.58
2022-08-19T08:28:25.421Z,18.40
2022-08-19T08:31:38.000Z,14.68
2022-08-19T08:34:43.289Z,16.15
2022-08-19T08:37:51.306Z,14.93
2022-08-19T08:41:07.634Z,18.10
2022-08-19T08:44:38.470Z,14.48
2022-08-19T08:47:47.582Z,12.32
2022-08-19T08:51:06.997Z,13.68
2022-08-19T08:54:29.110Z,15.07
2022-08-19T08:57:42.601Z,22.20
2022-08-19T09:00:51.137Z,16.25
2022-08-19T09:03:54.833Z,13.20
2022-08-19T09:07:34.515Z,18.50
2022-08-19T09:10:48.521Z,14.32
2022-08-19T09:14:34.892Z,11.57
2022-08-19T09:17:50.119Z,13.02
2022-08-19T09:20:57.870Z,16.17
2022-08-19T09:24:12.458Z,8.32
2022-08-19T09:27:41.890Z,14.98
2022-08-19T09:30:50.275Z,16.92
2022-08-19T09:34:04.708Z,13.52
2022-08-19T09:37:09.957Z,15.63
2022-08-19T09:40:18.273Z,16.77
2022-08-19T09:43:33.163Z,15.40
2022-08-19T09:46:42.913Z,15.68
2022-08-19T09:49:47.823Z,16.77
2022-08-19T09:56:15.375Z,22.52
2022-08-19T09:59:24.001Z,11.73
2022-08-19T10:02:37.507Z,14.32
2022-08-19T10:05:55.160Z,12.35
2022-08-19T10:09:05.179Z,13.15
2022-08-19T10:12:17.912Z,11.15
2022-08-19T10:15:47.333Z,14.98
2022-08-19T10:18:59.004Z,17.92
2022-08-19T10:22:13.574Z,14.68
2022-08-19T10:25:18.362Z,18.05
2022-08-19T10:28:24.895Z,14.30
2022-08-19T10:32:02.374Z,14.32
2022-08-19T10:35:10.685Z,13.77
2022-08-19T10:38:22.816Z,11.38
2022-08-19T10:41:43.964Z,10.40
2022-08-19T10:44:58.233Z,10.32
2022-08-19T10:48:03.604Z,13.45
2022-08-19T10:51:28.207Z,10.50
2022-08-19T10:55:08.522Z,14.23
2022-08-19T10:58:18.719Z,14.55
2022-08-19T11:01:22.706Z,9.55
2022-08-19T11:04:30.445Z,13.23
2022-08-19T11:07:41.978Z,13.05
2022-08-19T11:10:50.427Z,9.25
2022-08-19T11:13:55.990Z,19.20
2022-08-19T11:17:06.225Z,19.27
2022-08-19T11:23:47.471Z,15.27
2022-08-19T11:26:54.600Z,11.75
2022-08-19T11:29:58.987Z,11.30
2022-08-19T11:33:06.231Z,12.63
2022-08-19T11:36:10.674Z,9.88
2022-08-19T11:39:23.445Z,8.10
2022-08-19T11:42:47.507Z,6.93
2022-08-19T11:45:53.766Z,7.80
2022-08-19T11:48:58.270Z,10.43
2022-08-19T11:52:02.862Z,12.77
2022-08-19T11:55:11.274Z,10.27
2022-08-19T11:58:19.177Z,7.90
2022-08-19T12:01:25.124Z,8.70
2022-08-19T12:04:31.840Z,8.85
2022-08-19T12:07:35.880Z,9.70
2022-08-19T12:10:43.378Z,8.95
2022-08-19T12:13:47.613Z,10.15
2022-08-19T12:17:01.637Z,13.30
2022-08-19T12:20:15.897Z,9.65
2022-08-19T12:23:20.179Z,10.32
2022-08-19T12:26:30.464Z,7.93
2022-08-19T12:29:35.290Z,9.07
2022-08-19T12:32:39.481Z,10.27
2022-08-19T12:35:49.413Z,11.52
2022-08-19T12:38:53.458Z,10.15
2022-08-19T12:42:03.546Z,11.15
2022-08-19T12:45:08.559Z,12.07
2022-08-19T12:48:33.420Z,6.75
2022-08-19T12:51:41.223Z,10.68
2022-08-19T12:54:47.552Z,9.77
2022-08-19T12:58:00.254Z,8.38
2022-08-19T13:01:09.417Z,10.02
2022-08-19T13:04:15.339Z,10.30
2022-08-19T13:07:18.917Z,11.85
2022-08-19T13:10:23.956Z,12.02
2022-08-19T13:14:06.225Z,9.65
2022-08-19T13:17:09.818Z,9.80
2022-08-19T13:20:14.238Z,8.25
2022-08-19T13:23:18.715Z,11.43
2022-08-19T13:26:23.502Z,9.13
2022-08-19T13:29:46.509Z,11.07
2022-08-19T13:33:07.369Z,11.68
2022-08-19T13:36:10.758Z,13.60
2022-08-19T13:39:14.674Z,10.25
2022-08-19T13:42:18.947Z,12.27
2022-08-19T13:45:26.292Z,9.90
2022-08-19T13:48:29.870Z,11.68
2022-08-19T13:51:33.578Z,9.73
2022-08-19T13:54:37.005Z,11.43
2022-08-19T13:57:40.719Z,14.50
2022-08-19T14:00:49.656Z,11.52
2022-08-19T14:06:57.149Z,13.30
2022-08-19T14:10:00.580Z,11.75
2022-08-19T14:13:06.564Z,13.13
2022-08-19T14:16:13.325Z,8.88
2022-08-19T14:19:18.023Z,12.70
2022-08-19T14:22:22.508Z,12.80
2022-08-19T14:28:47.410Z,9.82
2022-08-19T14:31:55.028Z,11.25
2022-08-19T14:34:59.402Z,12.98
2022-08-19T14:38:05.444Z,7.10
2022-08-19T14:41:17.481Z,12.73
2022-08-19T14:44:21.444Z,14.35
2022-08-19T14:47:26.799Z,9.70
2022-08-19T14:50:33.413Z,9.73
2022-08-19T14:53:37.572Z,10.55
2022-08-19T14:56:42.676Z,10.80
2022-08-19T14:59:46.415Z,14.60
2022-08-19T15:02:53.197Z,13.65
2022-08-19T15:06:14.419Z,10.70
2022-08-19T15:09:23.753Z,10.02
2022-08-19T15:12:27.514Z,9.23
2022-08-19T15:15:31.586Z,10.63
2022-08-19T15:18:50.188Z,9.57
2022-08-19T15:21:56.480Z,10.57
2022-08-19T15:25:02.158Z,20.00
2022-08-19T15:28:07.689Z,9.63
2022-08-19T15:31:18.933Z,6.30
2022-08-19T15:34:36.627Z,10.85
2022-08-19T15:37:40.521Z,9.07
2022-08-19T15:40:45.708Z,7.47
2022-08-19T15:43:51.144Z,10.85
2022-08-19T15:46:55.341Z,10.43
2022-08-19T15:50:01.092Z,11.45
2022-08-19T15:53:08.491Z,10.63
2022-08-19T15:56:12.824Z,8.07
2022-08-19T15:59:34.089Z,9.93
2022-08-19T16:03:01.905Z,9.38
2022-08-19T16:06:25.008Z,11.75
2022-08-19T16:09:33.450Z,14.30
2022-08-19T16:12:39.181Z,6.38
2022-08-19T16:15:44.194Z,8.63
2022-08-19T16:18:48.858Z,9.73
2022-08-19T16:21:56.340Z,10.45
2022-08-19T16:25:00.413Z,10.63
2022-08-19T16:28:07.135Z,13.00
2022-08-19T16:31:12.265Z,10.73
2022-08-19T16:34:15.763Z,16.77
2022-08-19T16:37:21.638Z,8.73
2022-08-19T16:40:25.609Z,16.60
2022-08-19T16:43:31.342Z,11.63
2022-08-19T16:46:34.856Z,13.13
2022-08-19T16:49:53.778Z,22.00
2022-08-19T16:53:00.020Z,12.52
2022-08-19T16:56:03.826Z,10.23
2022-08-19T16:59:08.566Z,12.35
2022-08-19T17:02:13.368Z,31.40
2022-08-19T17:05:17.058Z,12.52
2022-08-19T17:08:22.325Z,14.88
2022-08-19T17:11:27.177Z,14.90
2022-08-19T17:14:30.615Z,11.20
2022-08-19T17:17:34.018Z,10.73
2022-08-19T17:20:38.614Z,16.90
2022-08-19T17:23:44.266Z,14.40
2022-08-19T17:26:47.668Z,10.60
2022-08-19T17:29:51.224Z,14.48
2022-08-19T17:32:54.688Z,14.48
2022-08-19T17:35:58.141Z,16.13
2022-08-19T17:39:04.941Z,12.27
2022-08-19T17:42:11.156Z,14.32
2022-08-19T17:45:15.841Z,14.68
2022-08-19T17:48:20.057Z,15.45
2022-08-19T17:51:27.475Z,18.95
2022-08-19T17:54:33.948Z,12.13
2022-08-19T17:57:40.554Z,16.77
2022-08-19T18:00:53.230Z,20.73
2022-08-19T18:03:57.401Z,17.42
2022-08-19T18:07:04.313Z,12.60
2022-08-19T18:10:10.898Z,12.18
2022-08-19T18:13:17.734Z,18.95
2022-08-19T18:16:22.189Z,17.33
2022-08-19T18:19:26.851Z,18.08
2022-08-19T18:22:36.894Z,12.98
2022-08-19T18:25:43.708Z,19.65
2022-08-19T18:28:50.000Z,16.08
2022-08-19T18:31:57.832Z,11.23
2022-08-19T18:35:02.421Z,19.95
2022-08-19T18:38:26.884Z,16.73
2022-08-19T18:41:49.396Z,17.08
2022-08-19T18:45:10.656Z,17.02
2022-08-19T18:48:31.747Z,19.90
2022-08-19T18:51:35.481Z,14.82
2022-08-19T18:54:38.914Z,21.95
2022-08-19T18:57:44.135Z,16.42
2022-08-19T19:00:47.609Z,12.90
2022-08-19T19:03:54.579Z,22.52
2022-08-19T19:06:58.615Z,17.60
2022-08-19T19:10:02.073Z,17.05
2022-08-19T19:13:07.010Z,18.23
2022-08-19T19:16:11.629Z,15.55
2022-08-19T19:19:15.767Z,15.55
2022-08-19T19:22:24.969Z,18.75
2022-08-19T19:25:28.983Z,16.40
2022-08-19T19:28:54.917Z,20.40
2022-08-19T19:31:58.356Z,15.70
2022-08-19T19:35:02.025Z,19.65
2022-08-19T19:38:05.589Z,12.40
2022-08-19T19:41:09.134Z,15.15
2022-08-19T19:44:30.537Z,17.58
2022-08-19T19:47:34.859Z,20.30
2022-08-19T19:50:38.332Z,14.27
2022-08-19T19:53:43.106Z,14.73
2022-08-19T19:56:50.379Z,19.20
2022-08-19T19:59:56.033Z,16.73
2022-08-19T20:02:59.623Z,20.15
2022-08-19T20:06:03.172Z,15.23
2022-08-19T20:09:10.575Z,16.63
2022-08-19T20:12:16.190Z,20.15
2022-08-19T20:15:24.276Z,16.27
2022-08-19T20:18:27.745Z,23.30
2022-08-19T20:21:35.265Z,19.88
2022-08-19T20:24:39.265Z,16.08
2022-08-19T20:27:43.786Z,13.50
2022-08-19T20:30:50.114Z,20.35
2022-08-19T20:33:53.575Z,20.10
2022-08-19T20:36:57.155Z,17.35
2022-08-19T20:40:01.299Z,13.18
2022-08-19T20:43:09.734Z,15.23
2022-08-19T20:46:15.783Z,12.48
2022-08-19T20:49:22.532Z,16.80
2022-08-19T20:52:25.854Z,15.15
2022-08-19T20:55:30.546Z,18.88
2022-08-19T20:58:35.816Z,13.63
2022-08-19T21:01:40.932Z,18.73
2022-08-19T21:04:44.282Z,16.73
2022-08-19T21:07:47.741Z,15.93
2022-08-19T21:10:58.780Z,15.38
2022-08-19T21:14:02.813Z,19.10
2022-08-19T21:17:07.980Z,19.95
2022-08-19T21:20:13.688Z,16.48
2022-08-19T21:23:19.245Z,14.50
2022-08-19T21:26:24.494Z,13.15
2022-08-19T21:29:27.960Z,11.10
2022-08-19T21:32:33.071Z,18.17
2022-08-19T21:35:36.441Z,15.00
2022-08-19T21:38:39.890Z,14.93
2022-08-19T21:41:43.832Z,18.65
2022-08-19T21:44:48.273Z,17.00
2022-08-19T21:47:57.634Z,15.10
2022-08-19T21:51:01.958Z,11.27
2022-08-19T21:54:05.658Z,15.90
2022-08-19T21:57:10.667Z,14.57
2022-08-19T22:00:18.812Z,16.23
2022-08-19T22:03:26.015Z,18.30
2022-08-19T22:06:29.947Z,19.20
2022-08-19T22:09:34.027Z,17.38
2022-08-19T22:12:39.343Z,18.05
2022-08-19T22:15:52.651Z,12.07
2022-08-19T22:18:57.687Z,15.07
2022-08-19T22:22:01.966Z,15.73
2022-08-19T22:25:09.029Z,16.00
2022-08-19T22:28:27.595Z,17.40
2022-08-19T22:31:31.724Z,15.05
2022-08-19T22:34:40.615Z,13.27
2022-08-19T22:37:44.716Z,13.85
2022-08-19T22:40:49.933Z,17.60
2022-08-19T22:43:54.995Z,18.63
2022-08-19T22:46:59.985Z,16.50
2022-08-19T22:50:06.602Z,17.15
2022-08-19T22:53:10.896Z,19.30
2022-08-19T22:56:17.384Z,16.00
2022-08-19T22:59:21.475Z,17.42
2022-08-19T23:02:27.647Z,19.77
2022-08-19T23:05:32.649Z,18.80
2022-08-19T23:08:39.812Z,17.48
2022-08-19T23:11:43.331Z,17.75
2022-08-19T23:14:46.781Z,29.45
2022-08-19T23:17:50.197Z,31.35
2022-08-19T23:20:55.048Z,48.97
2022-08-19T23:23:58.874Z,34.35
2022-08-19T23:27:16.316Z,34.83
2022-08-19T23:30:28.652Z,42.60
2022-08-19T23:33:50.866Z,48.60
2022-08-19T23:36:56.534Z,56.63
2022-08-19T23:40:00.028Z,53.38
2022-08-19T23:43:03.601Z,51.92
2022-08-19T23:46:13.057Z,46.47
2022-08-19T23:49:16.606Z,34.67
2022-08-19T23:52:21.616Z,37.33
2022-08-19T23:55:27.955Z,32.50
2022-08-19T23:58:31.942Z,27.55
